sensor_id;sensor_type;location;lat;lon;timestamp;temperature;humidity
22290;DHT22;11313;50.116;8.424;2022-09-24T00:01:13;23.30;55.40
22290;DHT22;11313;50.116;8.424;2022-09-24T00:03:40;23.30;55.40
22290;DHT22;11313;50.116;8.424;2022-09-24T00:06:07;23.30;55.40
22290;DHT22;11313;50.116;8.424;2022-09-24T00:08:32;23.30;55.50
22290;DHT22;11313;50.116;8.424;2022-09-24T00:11:04;23.30;56.10
22290;DHT22;11313;50.116;8.424;2022-09-24T00:13:31;23.30;55.50
22290;DHT22;11313;50.116;8.424;2022-09-24T00:16:02;23.30;55.40
22290;DHT22;11313;50.116;8.424;2022-09-24T00:18:29;23.30;55.50
22290;DHT22;11313;50.116;8.424;2022-09-24T00:20:55;23.30;55.50
22290;DHT22;11313;50.116;8.424;2022-09-24T00:23:20;23.30;55.50
22290;DHT22;11313;50.116;8.424;2022-09-24T00:25:46;23.30;55.50
22290;DHT22;11313;50.116;8.424;2022-09-24T00:28:31;23.30;55.50
22290;DHT22;11313;50.116;8.424;2022-09-24T00:30:58;23.30;55.60
22290;DHT22;11313;50.116;8.424;2022-09-24T00:33:24;23.30;55.50
22290;DHT22;11313;50.116;8.424;2022-09-24T00:35:50;23.30;55.50
22290;DHT22;11313;50.116;8.424;2022-09-24T00:38:16;23.30;55.50
22290;DHT22;11313;50.116;8.424;2022-09-24T00:40:42;23.20;55.40
22290;DHT22;11313;50.116;8.424;2022-09-24T00:43:40;23.30;56.20
22290;DHT22;11313;50.116;8.424;2022-09-24T00:46:36;23.30;55.50
22290;DHT22;11313;50.116;8.424;2022-09-24T00:49:15;23.20;55.40
22290;DHT22;11313;50.116;8.424;2022-09-24T00:51:43;23.30;55.50
22290;DHT22;11313;50.116;8.424;2022-09-24T00:54:13;23.30;55.50
22290;DHT22;11313;50.116;8.424;2022-09-24T00:56:40;23.30;55.60
22290;DHT22;11313;50.116;8.424;2022-09-24T00:59:08;23.30;55.60
22290;DHT22;11313;50.116;8.424;2022-09-24T01:01:36;23.30;55.60
22290;DHT22;11313;50.116;8.424;2022-09-24T01:04:02;23.30;55.60
22290;DHT22;11313;50.116;8.424;2022-09-24T01:06:29;23.30;55.60
22290;DHT22;11313;50.116;8.424;2022-09-24T01:08:55;23.30;55.60
22290;DHT22;11313;50.116;8.424;2022-09-24T01:14:33;23.30;55.60
22290;DHT22;11313;50.116;8.424;2022-09-24T01:28:43;23.30;55.60
22290;DHT22;11313;50.116;8.424;2022-09-24T01:31:21;23.30;55.60
22290;DHT22;11313;50.116;8.424;2022-09-24T01:33:53;23.30;55.60
22290;DHT22;11313;50.116;8.424;2022-09-24T01:36:21;23.30;55.60
22290;DHT22;11313;50.116;8.424;2022-09-24T01:38:51;23.30;55.70
22290;DHT22;11313;50.116;8.424;2022-09-24T01:41:18;23.30;55.70
22290;DHT22;11313;50.116;8.424;2022-09-24T01:43:44;23.30;55.70
22290;DHT22;11313;50.116;8.424;2022-09-24T01:46:11;23.30;55.70
22290;DHT22;11313;50.116;8.424;2022-09-24T01:48:38;23.30;55.70
22290;DHT22;11313;50.116;8.424;2022-09-24T09:08:08;22.50;54.80
22290;DHT22;11313;50.116;8.424;2022-09-24T09:10:40;22.60;54.90
22290;DHT22;11313;50.116;8.424;2022-09-24T09:16:17;22.60;54.90
22290;DHT22;11313;50.116;8.424;2022-09-24T09:18:46;22.50;54.00
22290;DHT22;11313;50.116;8.424;2022-09-24T09:21:24;22.50;54.20
22290;DHT22;11313;50.116;8.424;2022-09-24T09:23:53;22.60;53.50
22290;DHT22;11313;50.116;8.424;2022-09-24T09:26:20;22.50;53.30
22290;DHT22;11313;50.116;8.424;2022-09-24T09:28:47;22.50;53.00
22290;DHT22;11313;50.116;8.424;2022-09-24T09:36:51;22.50;53.00
22290;DHT22;11313;50.116;8.424;2022-09-24T09:39:31;22.50;52.90
22290;DHT22;11313;50.116;8.424;2022-09-24T09:42:30;22.50;52.90
22290;DHT22;11313;50.116;8.424;2022-09-24T09:48:04;22.50;53.00
22290;DHT22;11313;50.116;8.424;2022-09-24T09:50:48;22.50;52.60
22290;DHT22;11313;50.116;8.424;2022-09-24T09:53:20;22.50;52.60
22290;DHT22;11313;50.116;8.424;2022-09-24T09:55:51;22.50;52.60
22290;DHT22;11313;50.116;8.424;2022-09-24T09:58:22;22.50;52.50
22290;DHT22;11313;50.116;8.424;2022-09-24T10:00:48;22.50;52.80
22290;DHT22;11313;50.116;8.424;2022-09-24T10:03:46;22.50;53.60
22290;DHT22;11313;50.116;8.424;2022-09-24T10:06:33;22.50;53.60
22290;DHT22;11313;50.116;8.424;2022-09-24T10:09:25;22.50;53.70
22290;DHT22;11313;50.116;8.424;2022-09-24T10:11:51;22.40;53.70
22290;DHT22;11313;50.116;8.424;2022-09-24T10:14:16;22.50;53.80
22290;DHT22;11313;50.116;8.424;2022-09-24T10:16:52;22.50;53.80
22290;DHT22;11313;50.116;8.424;2022-09-24T10:19:21;22.50;53.80
22290;DHT22;11313;50.116;8.424;2022-09-24T10:21:48;22.50;53.90
22290;DHT22;11313;50.116;8.424;2022-09-24T10:24:18;22.50;53.90
22290;DHT22;11313;50.116;8.424;2022-09-24T10:26:45;22.50;53.90
22290;DHT22;11313;50.116;8.424;2022-09-24T10:29:25;22.60;54.10
22290;DHT22;11313;50.116;8.424;2022-09-24T10:32:28;22.60;54.10
22290;DHT22;11313;50.116;8.424;2022-09-24T10:35:02;22.50;54.10
22290;DHT22;11313;50.116;8.424;2022-09-24T10:37:30;22.50;54.10
22290;DHT22;11313;50.116;8.424;2022-09-24T10:40:11;22.60;54.20
22290;DHT22;11313;50.116;8.424;2022-09-24T10:42:37;22.50;54.20
22290;DHT22;11313;50.116;8.424;2022-09-24T10:45:09;22.60;54.20
22290;DHT22;11313;50.116;8.424;2022-09-24T10:52:53;22.50;54.20
22290;DHT22;11313;50.116;8.424;2022-09-24T11:03:46;22.50;54.30
22290;DHT22;11313;50.116;8.424;2022-09-24T11:11:54;22.50;54.30
22290;DHT22;11313;50.116;8.424;2022-09-24T11:17:36;22.60;54.40
22290;DHT22;11313;50.116;8.424;2022-09-24T11:25:44;22.60;54.50
22290;DHT22;11313;50.116;8.424;2022-09-24T11:31:32;22.60;54.60
22290;DHT22;11313;50.116;8.424;2022-09-24T11:34:44;22.60;54.60
22290;DHT22;11313;50.116;8.424;2022-09-24T11:39:58;22.60;54.60
22290;DHT22;11313;50.116;8.424;2022-09-24T11:45:42;22.60;54.60
22290;DHT22;11313;50.116;8.424;2022-09-24T12:01:30;22.60;54.60
22290;DHT22;11313;50.116;8.424;2022-09-24T12:04:15;22.60;54.60
22290;DHT22;11313;50.116;8.424;2022-09-24T12:06:53;22.60;54.60
22290;DHT22;11313;50.116;8.424;2022-09-24T12:12:25;22.60;54.60
22290;DHT22;11313;50.116;8.424;2022-09-24T12:18:01;22.60;54.60
22290;DHT22;11313;50.116;8.424;2022-09-24T12:20:29;22.60;54.60
22290;DHT22;11313;50.116;8.424;2022-09-24T12:23:03;22.60;54.50
22290;DHT22;11313;50.116;8.424;2022-09-24T12:25:37;22.60;54.50
22290;DHT22;11313;50.116;8.424;2022-09-24T12:28:04;22.60;54.60
22290;DHT22;11313;50.116;8.424;2022-09-24T12:30:51;22.60;54.50
22290;DHT22;11313;50.116;8.424;2022-09-24T12:37:04;22.60;54.50
22290;DHT22;11313;50.116;8.424;2022-09-24T12:39:37;22.60;54.50
22290;DHT22;11313;50.116;8.424;2022-09-24T12:42:07;22.60;54.60
22290;DHT22;11313;50.116;8.424;2022-09-24T12:44:48;22.60;54.50
22290;DHT22;11313;50.116;8.424;2022-09-24T12:47:23;22.60;54.50
22290;DHT22;11313;50.116;8.424;2022-09-24T12:50:01;22.60;54.50
22290;DHT22;11313;50.116;8.424;2022-09-24T12:52:38;22.60;54.50
22290;DHT22;11313;50.116;8.424;2022-09-24T12:55:05;22.60;54.50
22290;DHT22;11313;50.116;8.424;2022-09-24T12:57:50;22.60;54.60
22290;DHT22;11313;50.116;8.424;2022-09-24T13:00:40;22.60;54.50
22290;DHT22;11313;50.116;8.424;2022-09-24T13:03:29;22.60;55.20
22290;DHT22;11313;50.116;8.424;2022-09-24T13:05:52;22.60;54.50
22290;DHT22;11313;50.116;8.424;2022-09-24T13:10:54;22.60;54.50
22290;DHT22;11313;50.116;8.424;2022-09-24T13:13:23;22.60;54.60
22290;DHT22;11313;50.116;8.424;2022-09-24T13:18:26;22.60;54.50
22290;DHT22;11313;50.116;8.424;2022-09-24T13:21:17;22.60;54.50
22290;DHT22;11313;50.116;8.424;2022-09-24T13:23:48;22.60;54.50
22290;DHT22;11313;50.116;8.424;2022-09-24T13:29:02;22.60;54.60
22290;DHT22;11313;50.116;8.424;2022-09-24T13:36:57;22.60;54.60
22290;DHT22;11313;50.116;8.424;2022-09-24T13:39:26;22.60;54.60
22290;DHT22;11313;50.116;8.424;2022-09-24T13:42:17;22.60;54.60
22290;DHT22;11313;50.116;8.424;2022-09-24T13:44:49;22.60;54.60
22290;DHT22;11313;50.116;8.424;2022-09-24T13:47:27;22.60;54.60
22290;DHT22;11313;50.116;8.424;2022-09-24T13:50:44;22.60;55.20
22290;DHT22;11313;50.116;8.424;2022-09-24T13:52:48;22.60;54.60
22290;DHT22;11313;50.116;8.424;2022-09-24T13:55:52;22.60;54.60
22290;DHT22;11313;50.116;8.424;2022-09-24T13:58:33;22.60;54.60
22290;DHT22;11313;50.116;8.424;2022-09-24T14:01:22;22.60;54.60
22290;DHT22;11313;50.116;8.424;2022-09-24T14:03:57;22.60;54.60
22290;DHT22;11313;50.116;8.424;2022-09-24T14:06:39;22.60;54.60
22290;DHT22;11313;50.116;8.424;2022-09-24T14:11:51;22.60;54.60
22290;DHT22;11313;50.116;8.424;2022-09-24T14:14:19;22.60;54.60
22290;DHT22;11313;50.116;8.424;2022-09-24T14:16:45;22.60;54.60
22290;DHT22;11313;50.116;8.424;2022-09-24T14:19:13;22.60;54.60
22290;DHT22;11313;50.116;8.424;2022-09-24T14:21:52;22.60;54.60
22290;DHT22;11313;50.116;8.424;2022-09-24T14:24:35;22.60;54.60
22290;DHT22;11313;50.116;8.424;2022-09-24T14:27:15;22.60;54.60
22290;DHT22;11313;50.116;8.424;2022-09-24T14:29:44;22.60;54.60
22290;DHT22;11313;50.116;8.424;2022-09-24T14:34:52;22.60;54.60
22290;DHT22;11313;50.116;8.424;2022-09-24T14:37:48;22.60;54.60
22290;DHT22;11313;50.116;8.424;2022-09-24T14:40:17;22.60;54.60
22290;DHT22;11313;50.116;8.424;2022-09-24T14:42:48;22.60;54.60
22290;DHT22;11313;50.116;8.424;2022-09-24T14:45:20;22.60;54.60
22290;DHT22;11313;50.116;8.424;2022-09-24T14:47:46;22.60;54.60
22290;DHT22;11313;50.116;8.424;2022-09-24T14:50:35;22.60;54.60
22290;DHT22;11313;50.116;8.424;2022-09-24T14:53:01;22.60;54.60
22290;DHT22;11313;50.116;8.424;2022-09-24T14:55:41;22.60;54.60
22290;DHT22;11313;50.116;8.424;2022-09-24T14:58:22;22.60;54.60
22290;DHT22;11313;50.116;8.424;2022-09-24T15:00:53;22.60;54.60
22290;DHT22;11313;50.116;8.424;2022-09-24T15:03:42;22.60;54.60
22290;DHT22;11313;50.116;8.424;2022-09-24T15:06:21;22.60;54.60
22290;DHT22;11313;50.116;8.424;2022-09-24T15:08:57;22.60;54.60
22290;DHT22;11313;50.116;8.424;2022-09-24T15:11:26;22.60;54.60
22290;DHT22;11313;50.116;8.424;2022-09-24T15:14:19;22.60;54.60
22290;DHT22;11313;50.116;8.424;2022-09-24T15:16:50;22.60;54.60
22290;DHT22;11313;50.116;8.424;2022-09-24T15:19:24;22.60;54.60
22290;DHT22;11313;50.116;8.424;2022-09-24T15:21:55;22.60;54.60
22290;DHT22;11313;50.116;8.424;2022-09-24T15:24:21;22.60;54.60
22290;DHT22;11313;50.116;8.424;2022-09-24T15:27:02;22.70;54.60
22290;DHT22;11313;50.116;8.424;2022-09-24T15:29:28;22.60;54.60
22290;DHT22;11313;50.116;8.424;2022-09-24T15:31:53;22.50;54.50
22290;DHT22;11313;50.116;8.424;2022-09-24T15:34:20;22.60;54.60
22290;DHT22;11313;50.116;8.424;2022-09-24T15:36:47;22.60;54.60
22290;DHT22;11313;50.116;8.424;2022-09-24T15:39:15;22.60;54.50
22290;DHT22;11313;50.116;8.424;2022-09-24T15:41:41;22.60;54.60
22290;DHT22;11313;50.116;8.424;2022-09-24T15:44:16;22.60;54.60
22290;DHT22;11313;50.116;8.424;2022-09-24T15:46:42;22.60;54.60
22290;DHT22;11313;50.116;8.424;2022-09-24T15:49:08;22.60;54.60
22290;DHT22;11313;50.116;8.424;2022-09-24T15:51:33;22.60;54.60
22290;DHT22;11313;50.116;8.424;2022-09-24T15:53:59;22.70;54.60
22290;DHT22;11313;50.116;8.424;2022-09-24T15:56:25;22.60;54.60
22290;DHT22;11313;50.116;8.424;2022-09-24T15:58:50;22.60;54.60
22290;DHT22;11313;50.116;8.424;2022-09-24T16:01:16;22.60;54.50
22290;DHT22;11313;50.116;8.424;2022-09-24T16:03:44;22.60;54.60
22290;DHT22;11313;50.116;8.424;2022-09-24T16:06:10;22.60;54.60
22290;DHT22;11313;50.116;8.424;2022-09-24T16:08:36;22.60;54.50
22290;DHT22;11313;50.116;8.424;2022-09-24T16:11:02;22.60;54.60
22290;DHT22;11313;50.116;8.424;2022-09-24T16:13:30;22.60;54.60
22290;DHT22;11313;50.116;8.424;2022-09-24T16:15:56;22.60;54.60
22290;DHT22;11313;50.116;8.424;2022-09-24T16:18:21;22.60;54.60
22290;DHT22;11313;50.116;8.424;2022-09-24T16:20:50;22.60;54.60
22290;DHT22;11313;50.116;8.424;2022-09-24T16:23:16;22.60;54.70
22290;DHT22;11313;50.116;8.424;2022-09-24T16:25:53;22.60;54.60
22290;DHT22;11313;50.116;8.424;2022-09-24T16:28:19;22.60;54.70
22290;DHT22;11313;50.116;8.424;2022-09-24T16:30:45;22.70;54.70
22290;DHT22;11313;50.116;8.424;2022-09-24T16:33:11;22.60;54.70
22290;DHT22;11313;50.116;8.424;2022-09-24T16:35:36;22.60;54.70
22290;DHT22;11313;50.116;8.424;2022-09-24T16:38:02;22.60;54.70
22290;DHT22;11313;50.116;8.424;2022-09-24T16:40:27;22.60;54.70
22290;DHT22;11313;50.116;8.424;2022-09-24T16:42:53;22.60;54.70
22290;DHT22;11313;50.116;8.424;2022-09-24T16:45:18;22.60;54.70
22290;DHT22;11313;50.116;8.424;2022-09-24T16:47:44;22.60;54.70
22290;DHT22;11313;50.116;8.424;2022-09-24T16:50:09;22.60;54.70
22290;DHT22;11313;50.116;8.424;2022-09-24T16:52:35;22.60;54.70
22290;DHT22;11313;50.116;8.424;2022-09-24T16:55:00;22.60;54.80
22290;DHT22;11313;50.116;8.424;2022-09-24T16:57:26;22.60;54.80
22290;DHT22;11313;50.116;8.424;2022-09-24T16:59:52;22.60;54.90
22290;DHT22;11313;50.116;8.424;2022-09-24T17:02:17;22.60;55.00
22290;DHT22;11313;50.116;8.424;2022-09-24T17:04:44;22.60;55.20
22290;DHT22;11313;50.116;8.424;2022-09-24T17:07:09;22.60;55.30
22290;DHT22;11313;50.116;8.424;2022-09-24T17:09:37;22.60;56.10
22290;DHT22;11313;50.116;8.424;2022-09-24T17:12:21;22.60;55.60
22290;DHT22;11313;50.116;8.424;2022-09-24T17:14:47;22.60;55.80
22290;DHT22;11313;50.116;8.424;2022-09-24T17:17:12;22.60;55.90
22290;DHT22;11313;50.116;8.424;2022-09-24T17:19:38;22.60;56.00
22290;DHT22;11313;50.116;8.424;2022-09-24T17:22:04;22.60;56.10
22290;DHT22;11313;50.116;8.424;2022-09-24T17:24:29;22.60;56.20
22290;DHT22;11313;50.116;8.424;2022-09-24T17:26:56;22.60;56.30
22290;DHT22;11313;50.116;8.424;2022-09-24T17:29:21;22.60;56.30
22290;DHT22;11313;50.116;8.424;2022-09-24T17:31:48;22.60;56.40
22290;DHT22;11313;50.116;8.424;2022-09-24T17:34:14;22.60;56.40
22290;DHT22;11313;50.116;8.424;2022-09-24T17:36:40;22.60;56.50
22290;DHT22;11313;50.116;8.424;2022-09-24T17:39:06;22.60;56.50
22290;DHT22;11313;50.116;8.424;2022-09-24T17:41:33;22.60;56.60
22290;DHT22;11313;50.116;8.424;2022-09-24T17:43:59;22.60;56.60
22290;DHT22;11313;50.116;8.424;2022-09-24T17:46:29;22.60;56.60
22290;DHT22;11313;50.116;8.424;2022-09-24T17:48:57;22.60;56.60
22290;DHT22;11313;50.116;8.424;2022-09-24T17:51:25;22.60;56.70
22290;DHT22;11313;50.116;8.424;2022-09-24T17:53:53;22.60;56.60
22290;DHT22;11313;50.116;8.424;2022-09-24T17:56:21;22.60;56.70
22290;DHT22;11313;50.116;8.424;2022-09-24T17:58:46;22.60;56.70
22290;DHT22;11313;50.116;8.424;2022-09-24T18:03:39;22.60;56.70
22290;DHT22;11313;50.116;8.424;2022-09-24T18:06:10;22.60;56.70
22290;DHT22;11313;50.116;8.424;2022-09-24T18:08:41;22.60;56.70
22290;DHT22;11313;50.116;8.424;2022-09-24T18:11:09;22.60;56.70
22290;DHT22;11313;50.116;8.424;2022-09-24T18:13:36;22.60;56.60
22290;DHT22;11313;50.116;8.424;2022-09-24T18:16:07;22.60;56.60
22290;DHT22;11313;50.116;8.424;2022-09-24T18:18:33;22.60;56.60
22290;DHT22;11313;50.116;8.424;2022-09-24T18:21:00;22.60;56.60
22290;DHT22;11313;50.116;8.424;2022-09-24T18:23:26;22.60;56.70
22290;DHT22;11313;50.116;8.424;2022-09-24T18:25:53;22.60;56.60
22290;DHT22;11313;50.116;8.424;2022-09-24T18:28:19;22.60;56.70
22290;DHT22;11313;50.116;8.424;2022-09-24T18:30:44;22.60;56.60
22290;DHT22;11313;50.116;8.424;2022-09-24T18:33:10;22.60;56.60
22290;DHT22;11313;50.116;8.424;2022-09-24T18:35:35;22.60;56.60
22290;DHT22;11313;50.116;8.424;2022-09-24T18:38:01;22.60;56.50
22290;DHT22;11313;50.116;8.424;2022-09-24T18:40:26;22.60;56.50
22290;DHT22;11313;50.116;8.424;2022-09-24T18:42:52;22.60;56.60
22290;DHT22;11313;50.116;8.424;2022-09-24T18:45:19;22.60;56.50
22290;DHT22;11313;50.116;8.424;2022-09-24T18:47:45;22.60;56.50
22290;DHT22;11313;50.116;8.424;2022-09-24T18:50:11;22.60;56.50
22290;DHT22;11313;50.116;8.424;2022-09-24T18:52:36;22.70;56.60
22290;DHT22;11313;50.116;8.424;2022-09-24T18:55:02;22.60;56.50
22290;DHT22;11313;50.116;8.424;2022-09-24T18:57:27;22.60;56.50
22290;DHT22;11313;50.116;8.424;2022-09-24T18:59:53;22.60;56.50
22290;DHT22;11313;50.116;8.424;2022-09-24T19:02:18;22.60;56.50
22290;DHT22;11313;50.116;8.424;2022-09-24T19:04:47;22.60;56.50
22290;DHT22;11313;50.116;8.424;2022-09-24T19:07:13;22.60;56.40
22290;DHT22;11313;50.116;8.424;2022-09-24T19:09:38;22.60;56.40
22290;DHT22;11313;50.116;8.424;2022-09-24T19:12:04;22.60;56.50
22290;DHT22;11313;50.116;8.424;2022-09-24T19:14:30;22.60;57.10
22290;DHT22;11313;50.116;8.424;2022-09-24T19:16:56;22.60;56.50
22290;DHT22;11313;50.116;8.424;2022-09-24T19:19:22;22.70;56.50
22290;DHT22;11313;50.116;8.424;2022-09-24T19:21:49;22.60;56.40
22290;DHT22;11313;50.116;8.424;2022-09-24T19:24:16;22.60;56.40
22290;DHT22;11313;50.116;8.424;2022-09-24T19:26:42;22.60;56.40
22290;DHT22;11313;50.116;8.424;2022-09-24T19:29:08;22.60;56.40
22290;DHT22;11313;50.116;8.424;2022-09-24T19:31:37;22.60;56.30
22290;DHT22;11313;50.116;8.424;2022-09-24T19:34:04;22.60;56.30
22290;DHT22;11313;50.116;8.424;2022-09-24T19:36:31;22.60;56.30
22290;DHT22;11313;50.116;8.424;2022-09-24T19:38:58;22.60;56.30
22290;DHT22;11313;50.116;8.424;2022-09-24T19:41:25;22.60;56.30
22290;DHT22;11313;50.116;8.424;2022-09-24T19:43:56;22.60;56.30
22290;DHT22;11313;50.116;8.424;2022-09-24T19:46:23;22.60;56.30
22290;DHT22;11313;50.116;8.424;2022-09-24T19:48:50;22.60;56.30
22290;DHT22;11313;50.116;8.424;2022-09-24T19:51:36;22.60;56.30
22290;DHT22;11313;50.116;8.424;2022-09-24T19:54:04;22.60;56.30
22290;DHT22;11313;50.116;8.424;2022-09-24T19:56:33;22.60;56.20
22290;DHT22;11313;50.116;8.424;2022-09-24T19:59:00;22.60;56.30
22290;DHT22;11313;50.116;8.424;2022-09-24T20:01:30;22.60;56.30
22290;DHT22;11313;50.116;8.424;2022-09-24T20:03:57;22.60;56.20
22290;DHT22;11313;50.116;8.424;2022-09-24T20:06:25;22.60;56.20
22290;DHT22;11313;50.116;8.424;2022-09-24T20:08:54;22.60;56.20
22290;DHT22;11313;50.116;8.424;2022-09-24T20:11:21;22.70;56.20
22290;DHT22;11313;50.116;8.424;2022-09-24T20:13:48;22.60;56.10
22290;DHT22;11313;50.116;8.424;2022-09-24T20:16:18;22.50;56.10
22290;DHT22;11313;50.116;8.424;2022-09-24T20:18:48;22.60;56.20
22290;DHT22;11313;50.116;8.424;2022-09-24T20:21:14;22.60;56.10
22290;DHT22;11313;50.116;8.424;2022-09-24T20:23:46;22.60;56.80
22290;DHT22;11313;50.116;8.424;2022-09-24T20:26:13;22.60;56.10
22290;DHT22;11313;50.116;8.424;2022-09-24T20:28:58;22.60;56.10
22290;DHT22;11313;50.116;8.424;2022-09-24T20:31:24;22.60;56.10
22290;DHT22;11313;50.116;8.424;2022-09-24T20:33:50;22.60;56.10
22290;DHT22;11313;50.116;8.424;2022-09-24T20:36:17;22.60;56.10
22290;DHT22;11313;50.116;8.424;2022-09-24T20:38:44;22.60;56.10
22290;DHT22;11313;50.116;8.424;2022-09-24T20:41:12;22.60;56.00
22290;DHT22;11313;50.116;8.424;2022-09-24T20:43:38;22.60;56.00
22290;DHT22;11313;50.116;8.424;2022-09-24T20:46:18;22.60;56.00
22290;DHT22;11313;50.116;8.424;2022-09-24T20:48:46;22.60;56.00
22290;DHT22;11313;50.116;8.424;2022-09-24T20:51:14;22.60;56.00
22290;DHT22;11313;50.116;8.424;2022-09-24T20:53:41;22.60;55.90
22290;DHT22;11313;50.116;8.424;2022-09-24T20:56:07;22.60;55.90
22290;DHT22;11313;50.116;8.424;2022-09-24T20:58:34;22.60;56.00
22290;DHT22;11313;50.116;8.424;2022-09-24T21:01:00;22.60;55.90
22290;DHT22;11313;50.116;8.424;2022-09-24T21:03:27;22.60;55.90
22290;DHT22;11313;50.116;8.424;2022-09-24T21:05:58;22.60;55.90
22290;DHT22;11313;50.116;8.424;2022-09-24T21:08:24;22.60;55.90
22290;DHT22;11313;50.116;8.424;2022-09-24T21:11:01;22.60;55.90
22290;DHT22;11313;50.116;8.424;2022-09-24T21:13:28;22.60;56.50
22290;DHT22;11313;50.116;8.424;2022-09-24T21:16:01;22.50;55.80
22290;DHT22;11313;50.116;8.424;2022-09-24T21:18:34;22.60;55.80
22290;DHT22;11313;50.116;8.424;2022-09-24T21:21:07;22.60;55.80
22290;DHT22;11313;50.116;8.424;2022-09-24T21:23:33;22.60;55.80
22290;DHT22;11313;50.116;8.424;2022-09-24T21:28:36;22.60;55.80
22290;DHT22;11313;50.116;8.424;2022-09-24T21:31:02;22.60;55.80
22290;DHT22;11313;50.116;8.424;2022-09-24T21:33:29;22.60;55.80
22290;DHT22;11313;50.116;8.424;2022-09-24T21:35:55;22.60;55.80
22290;DHT22;11313;50.116;8.424;2022-09-24T21:38:23;22.60;55.70
22290;DHT22;11313;50.116;8.424;2022-09-24T21:40:52;22.60;55.80
22290;DHT22;11313;50.116;8.424;2022-09-24T21:43:19;22.60;55.70
22290;DHT22;11313;50.116;8.424;2022-09-24T21:46:00;22.60;55.70
22290;DHT22;11313;50.116;8.424;2022-09-24T21:48:26;22.60;55.70
22290;DHT22;11313;50.116;8.424;2022-09-24T21:50:53;22.60;55.70
22290;DHT22;11313;50.116;8.424;2022-09-24T21:53:19;22.60;55.70
22290;DHT22;11313;50.116;8.424;2022-09-24T21:55:47;22.60;55.70
22290;DHT22;11313;50.116;8.424;2022-09-24T21:58:13;22.60;55.70
22290;DHT22;11313;50.116;8.424;2022-09-24T22:00:39;22.60;55.70
22290;DHT22;11313;50.116;8.424;2022-09-24T22:03:05;22.60;55.60
22290;DHT22;11313;50.116;8.424;2022-09-24T22:05:30;22.60;55.70
22290;DHT22;11313;50.116;8.424;2022-09-24T22:07:57;22.60;55.70
22290;DHT22;11313;50.116;8.424;2022-09-24T22:10:22;22.60;55.70
22290;DHT22;11313;50.116;8.424;2022-09-24T22:12:48;22.60;55.70
22290;DHT22;11313;50.116;8.424;2022-09-24T22:15:14;22.60;55.70
22290;DHT22;11313;50.116;8.424;2022-09-24T22:17:40;22.50;55.60
22290;DHT22;11313;50.116;8.424;2022-09-24T22:20:07;22.50;55.60
22290;DHT22;11313;50.116;8.424;2022-09-24T22:22:32;22.60;55.60
22290;DHT22;11313;50.116;8.424;2022-09-24T22:24:58;22.50;55.60
22290;DHT22;11313;50.116;8.424;2022-09-24T22:27:23;22.50;55.60
22290;DHT22;11313;50.116;8.424;2022-09-24T22:29:49;22.60;55.60
22290;DHT22;11313;50.116;8.424;2022-09-24T22:32:15;22.50;55.60
22290;DHT22;11313;50.116;8.424;2022-09-24T22:34:41;22.60;55.60
22290;DHT22;11313;50.116;8.424;2022-09-24T22:37:25;22.50;55.50
22290;DHT22;11313;50.116;8.424;2022-09-24T22:39:51;22.50;55.50
22290;DHT22;11313;50.116;8.424;2022-09-24T22:42:17;22.50;55.50
22290;DHT22;11313;50.116;8.424;2022-09-24T22:44:42;22.50;55.50
22290;DHT22;11313;50.116;8.424;2022-09-24T22:47:08;22.50;55.60
22290;DHT22;11313;50.116;8.424;2022-09-24T22:49:33;22.50;55.50
22290;DHT22;11313;50.116;8.424;2022-09-24T22:52:01;22.50;55.60
22290;DHT22;11313;50.116;8.424;2022-09-24T22:54:26;22.50;55.60
22290;DHT22;11313;50.116;8.424;2022-09-24T22:56:52;22.50;55.60
22290;DHT22;11313;50.116;8.424;2022-09-24T22:59:17;22.50;55.50
22290;DHT22;11313;50.116;8.424;2022-09-24T23:01:43;22.50;55.50
22290;DHT22;11313;50.116;8.424;2022-09-24T23:04:09;22.50;55.50
22290;DHT22;11313;50.116;8.424;2022-09-24T23:06:42;22.50;55.50
22290;DHT22;11313;50.116;8.424;2022-09-24T23:09:09;22.50;55.50
22290;DHT22;11313;50.116;8.424;2022-09-24T23:11:34;22.50;55.50
22290;DHT22;11313;50.116;8.424;2022-09-24T23:14:14;22.50;56.20
22290;DHT22;11313;50.116;8.424;2022-09-24T23:16:41;22.50;55.50
22290;DHT22;11313;50.116;8.424;2022-09-24T23:19:14;22.50;55.60
22290;DHT22;11313;50.116;8.424;2022-09-24T23:21:40;22.50;55.50
22290;DHT22;11313;50.116;8.424;2022-09-24T23:24:12;22.50;55.50
22290;DHT22;11313;50.116;8.424;2022-09-24T23:26:37;22.50;55.50
22290;DHT22;11313;50.116;8.424;2022-09-24T23:29:03;22.50;55.50
22290;DHT22;11313;50.116;8.424;2022-09-24T23:31:31;22.50;55.50
22290;DHT22;11313;50.116;8.424;2022-09-24T23:33:58;22.50;55.60
22290;DHT22;11313;50.116;8.424;2022-09-24T23:36:27;22.50;55.60
22290;DHT22;11313;50.116;8.424;2022-09-24T23:38:55;22.50;55.50
22290;DHT22;11313;50.116;8.424;2022-09-24T23:41:21;22.50;55.50
22290;DHT22;11313;50.116;8.424;2022-09-24T23:43:46;22.50;55.50
22290;DHT22;11313;50.116;8.424;2022-09-24T23:46:12;22.50;55.50
22290;DHT22;11313;50.116;8.424;2022-09-24T23:48:38;22.50;55.50
22290;DHT22;11313;50.116;8.424;2022-09-24T23:51:05;22.50;55.50
22290;DHT22;11313;50.116;8.424;2022-09-24T23:53:31;22.50;55.50
22290;DHT22;11313;50.116;8.424;2022-09-24T23:55:58;22.50;55.50
22290;DHT22;11313;50.116;8.424;2022-09-24T23:58:24;22.50;55.50
